Time;durP1;ratioP1;P1;durP2;ratioP2;P2;SDS_P1;SDS_P2;PMS_P1;PMS_P2;Temp;Humidity;BMP_temperature;BMP_pressure;BME280_temperature;BME280_humidity;BME280_pressure;Samples;Min_cycle;Max_cycle;Signal;HPM_P1;HPM_P2
2022/06/28 00:00:10;;;;;;;10.10;9.20;;;14.70;99.90;;;;;;5066455;28;20367;-50
2022/06/28 00:02:36;;;;;;;;;;;14.70;99.90;;;;;;5051741;28;20080;-50
2022/06/28 00:05:02;;;;;;;9.65;8.70;;;14.70;99.90;;;;;;5051522;28;19956;-55
2022/06/28 00:07:29;;;;;;;13.63;9.85;;;14.70;99.90;;;;;;5063033;28;20040;-50
2022/06/28 00:09:54;;;;;;;;;;;14.70;99.90;;;;;;5073255;28;20041;-50
2022/06/28 00:12:20;;;;;;;11.05;9.85;;;14.70;99.90;;;;;;5056425;28;20332;-52
2022/06/28 00:17:30;;;;;;;12.55;10.93;;;14.70;99.90;;;;;;5053796;28;20068;-51
2022/06/28 00:19:55;;;;;;;14.35;9.77;;;14.60;99.90;;;;;;5063633;28;20387;-56
2022/06/28 00:22:21;;;;;;;15.07;10.85;;;14.60;99.90;;;;;;5062502;28;20044;-50
2022/06/28 00:24:47;;;;;;;16.30;11.27;;;14.60;99.90;;;;;;5072090;28;20098;-52
2022/06/28 00:27:12;;;;;;;13.85;10.65;;;14.60;99.90;;;;;;5061564;28;20036;-52
2022/06/28 00:29:38;;;;;;;11.65;10.57;;;14.50;99.90;;;;;;5064108;28;20091;-55
2022/06/28 00:32:04;;;;;;;13.93;11.23;;;14.40;99.90;;;;;;5071697;28;20044;-50
2022/06/28 00:34:30;;;;;;;11.23;10.13;;;14.40;99.90;;;;;;5070089;28;20044;-55
2022/06/28 00:36:56;;;;;;;12.43;11.20;;;14.40;99.90;;;;;;5054386;28;20045;-50
2022/06/28 00:39:22;;;;;;;12.30;10.98;;;14.30;99.90;;;;;;5058222;28;20075;-53
2022/06/28 00:41:47;;;;;;;12.13;11.00;;;14.30;99.90;;;;;;5071066;28;20079;-50
2022/06/28 00:44:13;;;;;;;12.38;11.10;;;14.30;99.90;;;;;;5059547;28;20112;-52
2022/06/28 00:46:39;;;;;;;12.02;10.80;;;14.20;99.90;;;;;;5065655;28;20029;-51
2022/06/28 00:49:05;;;;;;;12.45;11.35;;;14.20;99.90;;;;;;5056065;28;20074;-51
2022/06/28 00:51:32;;;;;;;;;;;14.20;99.90;;;;;;5051705;28;20540;-53
2022/06/28 00:53:57;;;;;;;11.85;10.75;;;14.20;99.90;;;;;;5059504;28;19998;-53
2022/06/28 00:56:24;;;;;;;13.85;10.68;;;14.20;99.90;;;;;;5070647;28;20052;-52
2022/06/28 00:58:52;;;;;;;;;;;14.20;99.90;;;;;;5066254;28;20635;-50
2022/06/28 01:01:19;;;;;;;12.52;11.05;;;14.20;99.90;;;;;;5071382;28;19920;-53
2022/06/28 01:03:45;;;;;;;12.32;11.07;;;14.10;99.90;;;;;;5068076;28;20508;-50
2022/06/28 01:06:11;;;;;;;15.63;11.85;;;14.10;99.90;;;;;;5068738;28;20048;-50
2022/06/28 01:08:37;;;;;;;12.13;10.95;;;14.10;99.90;;;;;;5063673;28;20139;-50
2022/06/28 01:11:18;;;;;;;13.70;12.18;;;14.10;99.90;;;;;;5057793;28;20024;-53
2022/06/28 01:13:46;;;;;;;15.30;12.35;;;14.10;99.90;;;;;;5065728;28;20093;-52
2022/06/28 01:16:12;;;;;;;16.17;10.85;;;14.00;99.90;;;;;;5051976;28;20037;-52
2022/06/28 01:18:38;;;;;;;13.93;12.50;;;14.10;99.90;;;;;;5065894;28;20090;-50
2022/06/28 01:21:05;;;;;;;12.98;11.68;;;14.00;99.90;;;;;;5064651;28;20044;-51
2022/06/28 01:23:31;;;;;;;14.55;12.18;;;14.00;99.90;;;;;;5051552;28;20048;-53
2022/06/28 01:25:58;;;;;;;14.80;13.23;;;14.00;99.90;;;;;;5060578;28;20421;-55
2022/06/28 01:28:23;;;;;;;15.68;12.70;;;14.00;99.90;;;;;;5053622;28;20521;-50
2022/06/28 01:30:49;;;;;;;15.80;13.93;;;14.00;99.90;;;;;;5051273;28;20037;-53
2022/06/28 01:33:15;;;;;;;18.45;14.07;;;14.00;99.90;;;;;;5063495;28;20044;-50
2022/06/28 01:35:41;;;;;;;18.38;13.68;;;14.00;99.90;;;;;;5052832;28;20128;-50
2022/06/28 01:38:10;;;;;;;15.05;12.77;;;14.00;99.90;;;;;;5065164;28;20044;-51
2022/06/28 01:40:36;;;;;;;14.50;13.07;;;14.00;99.90;;;;;;5066490;28;20071;-50
2022/06/28 01:43:01;;;;;;;19.00;14.57;;;13.90;99.90;;;;;;5062814;28;20201;-50
2022/06/28 01:45:28;;;;;;;16.88;13.95;;;14.00;99.90;;;;;;5070696;28;20513;-50
2022/06/28 01:47:54;;;;;;;15.55;12.75;;;13.90;99.90;;;;;;5059643;28;20029;-57
2022/06/28 01:50:20;;;;;;;15.75;13.48;;;13.90;99.90;;;;;;5051002;28;20110;-50
2022/06/28 01:52:46;;;;;;;17.95;15.10;;;13.90;99.90;;;;;;5058556;28;20045;-50
2022/06/28 01:55:12;;;;;;;18.50;14.05;;;13.90;99.90;;;;;;5070749;28;20044;-51
2022/06/28 01:57:38;;;;;;;15.95;13.98;;;13.90;99.90;;;;;;5066213;28;20048;-50
2022/06/28 02:00:04;;;;;;;16.13;14.43;;;13.90;99.90;;;;;;5070378;28;20490;-52
2022/06/28 02:02:30;;;;;;;17.83;15.90;;;13.90;99.90;;;;;;5058877;28;20036;-55
2022/06/28 02:04:55;;;;;;;17.55;15.75;;;13.90;99.90;;;;;;5068748;28;20044;-51
2022/06/28 02:07:21;;;;;;;17.25;14.63;;;13.80;99.90;;;;;;5064020;28;20358;-53
2022/06/28 02:09:47;;;;;;;17.23;15.52;;;13.80;99.90;;;;;;5051177;28;20127;-50
2022/06/28 02:12:12;;;;;;;19.63;16.03;;;13.80;99.90;;;;;;5064027;28;20044;-50
2022/06/28 02:14:38;;;;;;;18.02;14.75;;;13.80;99.90;;;;;;5056561;28;20282;-52
2022/06/28 02:17:03;;;;;;;16.58;14.60;;;13.80;99.90;;;;;;5054946;28;20074;-51
2022/06/28 02:19:29;;;;;;;17.58;15.75;;;13.80;99.90;;;;;;5068608;28;20459;-53
2022/06/28 02:21:55;;;;;;;17.05;15.18;;;13.70;99.90;;;;;;5068862;28;20072;-50
2022/06/28 02:24:21;;;;;;;21.75;17.52;;;13.70;99.90;;;;;;5051009;28;20510;-50
2022/06/28 02:26:46;;;;;;;18.90;15.38;;;13.70;99.90;;;;;;5054080;28;20028;-52
2022/06/28 02:29:12;;;;;;;18.52;14.57;;;13.70;99.90;;;;;;5066329;28;20094;-51
2022/06/28 02:31:37;;;;;;;20.13;16.67;;;13.70;99.90;;;;;;5069261;28;20071;-50
2022/06/28 02:34:04;;;;;;;16.55;14.77;;;13.70;99.90;;;;;;5053574;28;20037;-51
2022/06/28 02:41:52;;;;;;;20.88;17.25;;;13.70;99.90;;;;;;5049421;28;20060;-52
2022/06/28 02:44:18;;;;;;;21.30;15.82;;;13.70;99.90;;;;;;5058511;28;20059;-53
2022/06/28 02:46:47;;;;;;;20.67;17.33;;;13.70;99.90;;;;;;5067366;28;20132;-52
2022/06/28 02:49:14;;;;;;;20.20;16.50;;;13.70;99.90;;;;;;5054882;28;20469;-51
2022/06/28 02:51:40;;;;;;;19.52;16.23;;;13.70;99.90;;;;;;5049265;28;20119;-50
2022/06/28 02:54:06;;;;;;;20.42;16.33;;;13.70;99.90;;;;;;5060219;28;20072;-52
2022/06/28 02:56:32;;;;;;;;;;;13.70;99.90;;;;;;5069509;28;20086;-50
2022/06/28 02:58:57;;;;;;;19.98;16.73;;;13.70;99.90;;;;;;5067504;28;20373;-53
2022/06/28 03:01:23;;;;;;;19.67;16.80;;;13.70;99.90;;;;;;5054055;28;20048;-52
2022/06/28 03:03:48;;;;;;;19.05;16.88;;;13.70;99.90;;;;;;5066882;28;20067;-53
2022/06/28 03:06:14;;;;;;;19.15;17.25;;;13.70;99.90;;;;;;5050909;28;20045;-51
2022/06/28 03:08:40;;;;;;;19.67;17.60;;;13.70;99.90;;;;;;5050638;28;20036;-50
2022/06/28 03:11:05;;;;;;;20.65;15.63;;;13.70;99.90;;;;;;5059051;28;20490;-50
2022/06/28 03:13:31;;;;;;;18.40;16.63;;;13.70;99.90;;;;;;5062486;28;20501;-52
2022/06/28 03:15:56;;;;;;;19.73;16.05;;;13.70;99.90;;;;;;5057329;28;20046;-53
2022/06/28 03:18:22;;;;;;;21.02;16.50;;;13.70;99.90;;;;;;5065986;28;20036;-50
2022/06/28 03:20:48;;;;;;;18.80;16.40;;;13.70;99.90;;;;;;5050715;28;20037;-51
2022/06/28 03:23:13;;;;;;;23.23;16.95;;;13.70;99.90;;;;;;5061500;28;20127;-52
2022/06/28 03:25:39;;;;;;;17.87;15.87;;;13.70;99.90;;;;;;5061324;28;20076;-53
2022/06/28 03:28:04;;;;;;;18.40;16.30;;;13.70;99.90;;;;;;5058274;28;20293;-50
2022/06/28 03:30:31;;;;;;;18.73;16.08;;;13.70;99.90;;;;;;5060425;28;20378;-50
2022/06/28 03:32:57;;;;;;;20.45;16.83;;;13.70;99.90;;;;;;5062453;28;20037;-50
2022/06/28 03:35:23;;;;;;;18.95;16.95;;;13.70;99.90;;;;;;5070373;28;20413;-50
2022/06/28 03:37:48;;;;;;;19.17;16.48;;;13.70;99.90;;;;;;5063396;28;20052;-50
2022/06/28 03:40:14;;;;;;;18.30;16.60;;;13.70;99.90;;;;;;5055156;28;20036;-50
2022/06/28 03:42:40;;;;;;;18.70;16.63;;;13.70;99.90;;;;;;5069890;28;20119;-56
2022/06/28 03:45:06;;;;;;;18.75;16.45;;;13.70;99.90;;;;;;5060690;28;20056;-55
2022/06/28 03:47:32;;;;;;;18.70;16.23;;;13.60;99.90;;;;;;5063076;28;20033;-53
2022/06/28 03:49:57;;;;;;;19.00;15.75;;;13.60;99.90;;;;;;5065303;28;20036;-50
2022/06/28 03:52:28;;;;;;;21.98;18.45;;;13.60;99.90;;;;;;5069697;28;20507;-50
2022/06/28 03:54:55;;;;;;;21.23;17.90;;;13.60;99.90;;;;;;5060472;28;20079;-53
2022/06/28 03:57:22;;;;;;;20.23;16.70;;;13.50;99.90;;;;;;5060354;28;20048;-52
2022/06/28 03:59:47;;;;;;;20.67;18.42;;;13.50;99.90;;;;;;5063045;28;20722;-50
2022/06/28 04:02:13;;;;;;;21.40;19.30;;;13.50;99.90;;;;;;5053786;28;20072;-51
2022/06/28 04:04:38;;;;;;;19.15;17.05;;;13.50;99.90;;;;;;5059650;28;20041;-52
2022/06/28 04:07:04;;;;;;;24.53;18.10;;;13.50;99.90;;;;;;5052996;28;20524;-50
2022/06/28 04:09:29;;;;;;;20.55;18.55;;;13.50;99.90;;;;;;5053718;28;20823;-50
2022/06/28 04:11:55;;;;;;;22.10;17.67;;;13.50;99.90;;;;;;5053423;28;20029;-50
2022/06/28 04:14:21;;;;;;;21.75;19.42;;;13.50;99.90;;;;;;5067430;28;20068;-53
2022/06/28 04:16:46;;;;;;;20.98;17.95;;;13.40;99.90;;;;;;5057135;28;20042;-51
2022/06/28 04:19:12;;;;;;;21.25;19.00;;;13.40;99.90;;;;;;5068741;28;20032;-51
2022/06/28 04:21:37;;;;;;;20.30;18.30;;;13.40;99.90;;;;;;5051210;28;20127;-53
2022/06/28 04:24:03;;;;;;;23.77;19.35;;;13.40;99.90;;;;;;5063385;28;20198;-52
2022/06/28 04:26:29;;;;;;;25.25;19.35;;;13.50;99.90;;;;;;5057824;28;20120;-53
2022/06/28 04:28:55;;;;;;;21.75;19.42;;;13.40;99.90;;;;;;5052440;28;20108;-50
2022/06/28 04:31:20;;;;;;;23.52;19.65;;;13.50;99.90;;;;;;5069192;28;20225;-53
2022/06/28 04:33:46;;;;;;;22.30;19.98;;;13.50;99.90;;;;;;5062541;28;20084;-50
2022/06/28 04:36:12;;;;;;;25.13;20.27;;;13.50;99.90;;;;;;5065210;28;20050;-50
2022/06/28 04:38:37;;;;;;;34.03;19.98;;;13.50;99.90;;;;;;5056329;28;20036;-54
2022/06/28 04:41:03;;;;;;;22.50;19.23;;;13.50;99.90;;;;;;5065920;28;20045;-52
2022/06/28 04:43:28;;;;;;;21.73;18.80;;;13.50;99.90;;;;;;5068585;28;20294;-51
2022/06/28 04:45:54;;;;;;;22.73;20.33;;;13.50;99.90;;;;;;5066723;28;20048;-50
2022/06/28 04:48:20;;;;;;;21.92;19.77;;;13.60;99.90;;;;;;5069729;28;20500;-51
2022/06/28 04:50:45;;;;;;;20.80;18.33;;;13.50;99.90;;;;;;5056927;28;20486;-50
2022/06/28 04:53:11;;;;;;;23.23;18.87;;;13.60;99.90;;;;;;5064074;28;20814;-52
2022/06/28 04:55:36;;;;;;;23.40;19.42;;;13.60;99.90;;;;;;5057251;28;20334;-50
2022/06/28 04:58:02;;;;;;;24.02;19.98;;;13.70;99.90;;;;;;5064712;28;20045;-51
2022/06/28 05:00:29;;;;;;;20.50;18.40;;;13.70;99.90;;;;;;5053609;28;20123;-51
2022/06/28 05:02:55;;;;;;;25.27;20.95;;;13.70;99.90;;;;;;5049282;28;20052;-52
2022/06/28 05:05:21;;;;;;;21.65;19.15;;;13.80;99.90;;;;;;5059695;28;20037;-50
2022/06/28 05:07:46;;;;;;;24.08;19.95;;;13.80;99.90;;;;;;5070178;28;20528;-50
2022/06/28 05:10:12;;;;;;;20.27;18.27;;;13.90;99.90;;;;;;5062968;28;20036;-52
2022/06/28 05:12:37;;;;;;;23.25;18.52;;;13.90;99.90;;;;;;5057034;28;20033;-50
2022/06/28 05:15:03;;;;;;;22.25;17.45;;;13.90;99.90;;;;;;5028762;28;1123752;-50
2022/06/28 05:17:29;;;;;;;22.58;17.48;;;14.00;99.90;;;;;;5069615;28;20079;-51
2022/06/28 05:19:55;;;;;;;19.90;17.88;;;14.00;99.90;;;;;;5051149;28;20537;-53
2022/06/28 05:22:21;;;;;;;22.45;18.27;;;14.10;99.90;;;;;;5056452;28;20048;-50
2022/06/28 05:24:47;;;;;;;18.35;16.13;;;14.10;99.90;;;;;;5051159;28;20041;-56
2022/06/28 05:27:12;;;;;;;26.48;18.08;;;14.20;99.90;;;;;;5062705;28;20048;-50
2022/06/28 05:29:38;;;;;;;21.10;16.50;;;14.30;99.90;;;;;;5054717;28;20088;-51
2022/06/28 05:32:04;;;;;;;16.65;14.38;;;14.30;99.90;;;;;;5051687;28;20029;-53
2022/06/28 05:34:30;;;;;;;19.98;15.70;;;14.40;99.90;;;;;;5056807;28;20029;-50
2022/06/28 05:36:55;;;;;;;19.60;16.23;;;14.40;99.90;;;;;;5054635;28;20409;-55
2022/06/28 05:39:21;;;;;;;20.63;16.35;;;14.50;99.90;;;;;;5050844;28;20025;-50
2022/06/28 05:41:47;;;;;;;18.58;16.60;;;14.50;99.90;;;;;;5066798;28;20316;-50
2022/06/28 05:44:14;;;;;;;17.40;15.52;;;14.60;99.90;;;;;;5068445;28;20074;-50
2022/06/28 05:46:40;;;;;;;18.45;15.40;;;14.70;99.90;;;;;;5053289;28;20051;-52
2022/06/28 05:49:07;;;;;;;16.25;14.60;;;14.70;99.90;;;;;;5052231;28;20327;-51
2022/06/28 05:51:33;;;;;;;17.95;15.85;;;14.70;99.90;;;;;;5053077;28;20416;-53
2022/06/28 05:53:58;;;;;;;16.27;14.27;;;14.80;99.90;;;;;;5066215;28;20037;-52
2022/06/28 05:56:24;;;;;;;20.33;15.13;;;14.80;99.90;;;;;;5061412;28;20048;-52
2022/06/28 05:58:50;;;;;;;18.85;13.38;;;14.90;99.90;;;;;;5061662;28;20501;-52
2022/06/28 06:01:15;;;;;;;16.95;14.40;;;15.00;99.90;;;;;;5065077;28;20524;-50
2022/06/28 06:03:41;;;;;;;17.92;12.70;;;15.00;99.90;;;;;;5065116;28;20190;-50
2022/06/28 06:06:06;;;;;;;12.95;10.55;;;15.10;99.90;;;;;;5062790;28;20309;-50
2022/06/28 06:08:35;;;;;;;18.95;10.25;;;15.10;99.90;;;;;;5062419;28;20068;-52
2022/06/28 06:11:02;;;;;;;17.15;12.10;;;15.10;99.90;;;;;;5064178;28;20681;-51
2022/06/28 06:13:27;;;;;;;16.60;10.13;;;15.20;99.90;;;;;;5049000;28;20451;-50
2022/06/28 06:15:53;;;;;;;17.10;11.02;;;15.20;99.90;;;;;;5053659;28;20066;-50
2022/06/28 06:18:19;;;;;;;12.10;10.90;;;15.30;99.90;;;;;;5055627;28;20040;-51
2022/06/28 06:20:44;;;;;;;18.80;11.55;;;15.40;99.90;;;;;;5051682;28;20060;-52
2022/06/28 06:23:10;;;;;;;13.05;9.18;;;15.40;99.90;;;;;;5061328;28;20556;-50
2022/06/28 06:25:35;;;;;;;17.52;10.20;;;15.50;99.90;;;;;;5057695;28;20080;-50
2022/06/28 06:28:01;;;;;;;11.43;10.23;;;15.50;99.90;;;;;;5056200;28;20029;-52
2022/06/28 06:30:27;;;;;;;13.30;9.13;;;15.60;99.90;;;;;;5067462;28;20041;-52
2022/06/28 06:32:53;;;;;;;;;;;15.60;99.90;;;;;;5060491;28;20033;-53
2022/06/28 06:35:18;;;;;;;12.85;8.88;;;15.70;99.90;;;;;;5058768;28;20336;-53
2022/06/28 06:37:44;;;;;;;10.68;8.88;;;15.70;99.90;;;;;;5059078;28;20049;-52
2022/06/28 06:40:10;;;;;;;17.38;8.80;;;15.80;99.90;;;;;;5046872;28;20032;-53
2022/06/28 06:42:35;;;;;;;12.95;9.65;;;15.90;99.90;;;;;;5053322;28;20090;-53
2022/06/28 06:45:01;;;;;;;30.88;8.80;;;15.90;99.90;;;;;;5055946;28;20052;-58
2022/06/28 06:47:26;;;;;;;17.67;9.60;;;16.00;99.90;;;;;;5055723;28;20131;-50
2022/06/28 06:49:52;;;;;;;10.55;9.45;;;16.00;99.90;;;;;;5058887;28;20037;-54
2022/06/28 06:52:18;;;;;;;17.02;9.57;;;16.10;99.90;;;;;;5064083;28;20036;-53
2022/06/28 06:54:43;;;;;;;12.55;8.57;;;16.20;99.90;;;;;;5064884;28;20094;-53
2022/06/28 06:57:09;;;;;;;14.57;9.98;;;16.20;99.90;;;;;;5064189;28;20048;-58
2022/06/28 06:59:34;;;;;;;17.30;10.25;;;16.30;99.90;;;;;;5055135;28;20041;-51
2022/06/28 07:02:00;;;;;;;12.60;7.82;;;16.30;99.90;;;;;;5046238;28;20044;-53
2022/06/28 07:04:25;;;;;;;14.05;9.38;;;16.40;99.90;;;;;;5058038;28;20090;-57
2022/06/28 07:06:51;;;;;;;12.93;8.70;;;16.30;99.90;;;;;;5050469;28;20146;-50
2022/06/28 07:09:17;;;;;;;14.70;9.25;;;16.40;99.90;;;;;;5051621;28;20045;-58
2022/06/28 07:11:42;;;;;;;11.75;9.60;;;16.50;99.90;;;;;;5049085;28;20041;-50
2022/06/28 07:14:08;;;;;;;16.80;8.95;;;16.50;99.90;;;;;;5047981;28;20028;-53
2022/06/28 07:16:34;;;;;;;18.33;10.10;;;16.60;99.90;;;;;;5050970;28;20588;-56
2022/06/28 07:19:00;;;;;;;14.32;9.18;;;16.70;99.90;;;;;;5054990;28;20564;-55
2022/06/28 07:21:27;;;;;;;15.98;9.57;;;16.70;99.90;;;;;;5049965;28;20114;-58
2022/06/28 07:23:53;;;;;;;13.63;11.57;;;16.70;99.90;;;;;;5051538;28;20556;-53
2022/06/28 07:26:19;;;;;;;24.73;9.85;;;16.80;99.90;;;;;;5055948;28;20086;-53
2022/06/28 07:28:46;;;;;;;14.10;9.18;;;16.80;99.90;;;;;;5055577;28;20033;-53
2022/06/28 07:31:12;;;;;;;16.75;9.40;;;16.90;99.90;;;;;;5055502;28;20040;-58
2022/06/28 07:33:37;;;;;;;13.45;7.43;;;16.90;99.90;;;;;;5053091;28;21508;-53
2022/06/28 07:36:03;;;;;;;12.85;8.40;;;16.90;99.90;;;;;;5057088;28;20056;-56
2022/06/28 07:38:29;;;;;;;17.27;9.15;;;17.00;99.90;;;;;;5049079;28;20043;-53
2022/06/28 07:40:57;;;;;;;18.52;10.27;;;17.00;99.90;;;;;;5050885;28;20033;-53
2022/06/28 07:43:23;;;;;;;10.93;7.50;;;17.10;99.90;;;;;;5051780;28;20040;-55
2022/06/28 07:45:48;;;;;;;12.35;7.38;;;17.10;99.90;;;;;;5054151;28;20048;-53
2022/06/28 07:48:14;;;;;;;13.00;7.07;;;17.20;99.90;;;;;;5043971;28;20557;-51
2022/06/28 07:53:24;;;;;;;10.73;7.20;;;17.20;99.90;;;;;;5048273;28;20493;-55
2022/06/28 07:55:50;;;;;;;8.23;6.43;;;17.30;99.90;;;;;;5047089;28;20040;-54
2022/06/28 07:58:16;;;;;;;13.07;6.65;;;17.30;99.90;;;;;;5050488;28;20119;-54
2022/06/28 08:00:42;;;;;;;7.70;5.90;;;17.40;99.90;;;;;;5051279;28;20045;-52
2022/06/28 08:03:08;;;;;;;;;;;17.30;99.90;;;;;;5044422;28;20114;-53
2022/06/28 08:05:34;;;;;;;12.82;5.80;;;17.40;99.90;;;;;;5046933;28;19921;-52
2022/06/28 08:07:59;;;;;;;8.98;4.30;;;17.30;99.90;;;;;;5047432;28;20036;-56
2022/06/28 08:10:25;;;;;;;7.65;4.28;;;17.40;99.90;;;;;;5051520;28;20029;-50
2022/06/28 08:12:51;;;;;;;12.82;4.13;;;17.40;99.90;;;;;;5055264;28;20042;-50
2022/06/28 08:15:16;;;;;;;8.95;4.32;;;17.50;99.90;;;;;;5053083;28;20488;-50
2022/06/28 08:17:42;;;;;;;9.05;4.22;;;17.60;99.90;;;;;;5050062;28;20045;-53
2022/06/28 08:20:08;;;;;;;9.85;4.15;;;17.70;99.90;;;;;;5048429;28;20049;-57
2022/06/28 08:22:33;;;;;;;9.85;5.05;;;17.80;99.90;;;;;;5051023;28;20037;-56
2022/06/28 08:24:59;;;;;;;8.65;4.15;;;17.90;99.90;;;;;;5054406;28;20116;-50
2022/06/28 08:27:25;;;;;;;5.32;3.10;;;18.00;99.90;;;;;;5052366;28;20395;-51
2022/06/28 08:29:50;;;;;;;12.45;3.80;;;18.10;99.90;;;;;;5055042;28;20064;-53
2022/06/28 08:32:17;;;;;;;8.57;1.90;;;18.10;99.90;;;;;;5058143;28;20089;-56
2022/06/28 08:34:43;;;;;;;6.05;2.20;;;18.10;99.90;;;;;;5050193;28;20036;-52
2022/06/28 08:37:09;;;;;;;7.43;2.75;;;18.10;99.90;;;;;;5051073;28;20044;-51
2022/06/28 08:39:34;;;;;;;10.65;3.90;;;18.20;99.90;;;;;;5050746;28;20723;-53
2022/06/28 08:42:03;;;;;;;4.60;2.78;;;18.20;99.90;;;;;;5050507;28;20204;-52
2022/06/28 08:44:35;;;;;;;12.23;2.25;;;18.30;99.90;;;;;;5045337;28;20064;-54
2022/06/28 08:47:02;;;;;;;8.73;2.15;;;18.30;99.90;;;;;;5051886;28;20429;-50
2022/06/28 08:49:56;;;;;;;4.90;1.88;;;18.30;99.90;;;;;;5052606;28;20433;-50
2022/06/28 08:52:23;;;;;;;6.82;2.00;;;18.30;99.90;;;;;;5046968;28;20041;-58
2022/06/28 08:54:50;;;;;;;2.95;1.27;;;18.30;99.90;;;;;;5051746;28;20041;-55
2022/06/28 08:57:19;;;;;;;3.97;1.50;;;18.20;99.90;;;;;;5044859;28;20049;-50
2022/06/28 08:59:46;;;;;;;10.95;1.95;;;18.20;99.90;;;;;;5047700;28;20044;-51
2022/06/28 09:02:14;;;;;;;5.10;2.33;;;18.20;99.90;;;;;;5046475;28;20432;-53
2022/06/28 09:04:44;;;;;;;13.07;1.90;;;18.30;99.90;;;;;;5050096;28;20048;-54
2022/06/28 09:07:10;;;;;;;6.28;2.50;;;18.30;99.90;;;;;;5050469;28;20154;-53
2022/06/28 09:09:35;;;;;;;3.53;1.90;;;18.30;99.90;;;;;;5046770;28;20068;-56
2022/06/28 09:12:02;;;;;;;5.10;1.55;;;18.40;99.90;;;;;;5046646;28;20126;-54
2022/06/28 09:14:31;;;;;;;5.60;1.85;;;18.40;99.90;;;;;;5046330;28;20148;-52
2022/06/28 09:16:57;;;;;;;5.85;1.95;;;18.50;99.90;;;;;;5052530;28;20028;-53
2022/06/28 09:19:35;;;;;;;2.97;2.47;;;18.50;99.90;;;;;;5044414;28;20084;-56
2022/06/28 09:22:03;;;;;;;3.85;2.00;;;18.60;99.90;;;;;;5048905;28;20399;-53
2022/06/28 09:24:29;;;;;;;4.07;1.77;;;18.70;99.90;;;;;;5052435;28;20033;-54
2022/06/28 09:26:59;;;;;;;;;;;18.70;99.90;;;;;;5050580;28;20036;-56
2022/06/28 09:29:24;;;;;;;5.50;1.88;;;18.70;99.90;;;;;;5049335;28;20378;-51
2022/06/28 09:31:50;;;;;;;10.20;1.95;;;18.80;99.90;;;;;;5055435;28;20040;-56
2022/06/28 09:34:15;;;;;;;5.50;2.17;;;18.80;99.90;;;;;;5049747;28;20036;-53
2022/06/28 09:36:55;;;;;;;5.25;1.73;;;18.90;99.90;;;;;;5046859;28;20036;-54
2022/06/28 09:39:22;;;;;;;4.13;0.80;;;18.80;99.90;;;;;;5050382;28;20072;-51
2022/06/28 09:41:51;;;;;;;4.72;1.90;;;18.90;99.90;;;;;;5052842;28;20145;-55
2022/06/28 09:44:17;;;;;;;4.65;1.38;;;18.90;99.90;;;;;;5051350;28;20494;-51
2022/06/28 09:46:44;;;;;;;4.88;1.75;;;19.00;99.90;;;;;;5045377;28;20082;-51
2022/06/28 09:49:11;;;;;;;7.03;1.50;;;19.00;99.90;;;;;;5055012;28;20142;-54
2022/06/28 09:51:37;;;;;;;9.88;1.63;;;19.00;99.90;;;;;;5049916;28;20052;-54
2022/06/28 09:54:07;;;;;;;;;;;19.10;99.90;;;;;;5045522;28;20064;-58
2022/06/28 09:56:35;;;;;;;7.65;1.63;;;19.20;99.90;;;;;;5046801;28;19932;-51
2022/06/28 09:59:02;;;;;;;8.20;1.33;;;19.20;99.90;;;;;;5052892;28;20103;-52
2022/06/28 10:01:28;;;;;;;3.05;1.67;;;19.30;99.90;;;;;;5044638;28;20048;-57
2022/06/28 10:03:54;;;;;;;6.95;1.58;;;19.30;99.90;;;;;;5055185;28;20471;-50
2022/06/28 10:06:21;;;;;;;3.65;1.35;;;19.30;99.90;;;;;;5055746;28;20493;-52
2022/06/28 10:08:47;;;;;;;3.90;0.90;;;19.30;99.90;;;;;;5053910;28;20431;-52
2022/06/28 10:11:14;;;;;;;4.95;1.10;;;19.30;99.90;;;;;;5055461;28;20047;-57
2022/06/28 10:17:04;;;;;;;6.18;0.90;;;19.40;99.90;;;;;;5053861;28;20140;-59
2022/06/28 10:19:33;;;;;;;5.03;0.75;;;19.40;99.90;;;;;;5056358;28;20040;-52
2022/06/28 10:22:01;;;;;;;4.80;1.20;;;19.50;99.90;;;;;;5053655;28;20036;-58
2022/06/28 10:24:50;;;;;;;2.55;0.65;;;19.60;99.30;;;;;;5052238;28;20177;-51
2022/06/28 10:27:16;;;;;;;3.65;0.82;;;19.60;98.90;;;;;;5053342;28;20094;-54
2022/06/28 10:30:08;;;;;;;6.15;0.93;;;19.60;99.30;;;;;;5054939;28;20490;-52
2022/06/28 10:32:41;;;;;;;6.15;0.93;;;19.70;99.90;;;;;;5051144;28;20063;-52
2022/06/28 10:35:07;;;;;;;10.32;1.60;;;19.70;98.70;;;;;;5048892;28;20568;-54
2022/06/28 10:37:33;;;;;;;;;;;19.70;99.90;;;;;;5056806;28;20033;-51
2022/06/28 10:40:22;;;;;;;8.23;0.93;;;19.80;99.90;;;;;;5054826;28;19931;-52
2022/06/28 10:42:49;;;;;;;6.25;0.40;;;19.90;99.90;;;;;;5039599;28;20056;-50
2022/06/28 10:45:15;;;;;;;6.95;0.70;;;19.90;98.90;;;;;;5055148;28;20324;-56
2022/06/28 10:48:10;;;;;;;2.47;0.45;;;20.00;97.70;;;;;;5054749;28;20068;-59
2022/06/28 10:51:14;;;;;;;2.78;0.85;;;20.00;98.90;;;;;;5054893;28;20024;-52
2022/06/28 10:53:55;;;;;;;2.53;0.60;;;20.10;97.70;;;;;;5010689;28;20578;-51
2022/06/28 10:56:21;;;;;;;2.25;0.40;;;20.20;97.90;;;;;;5008165;28;20048;-54
2022/06/28 10:58:57;;;;;;;3.13;0.50;;;20.20;97.10;;;;;;5011161;28;20050;-53
2022/06/28 11:01:48;;;;;;;4.07;0.93;;;20.20;97.20;;;;;;5012494;28;20204;-50
2022/06/28 11:04:31;;;;;;;4.57;0.45;;;20.30;98.30;;;;;;5012611;28;20045;-53
2022/06/28 11:07:00;;;;;;;4.78;0.95;;;20.30;97.60;;;;;;4996405;28;20056;-54
2022/06/28 11:09:44;;;;;;;2.50;0.57;;;20.30;97.70;;;;;;5011788;28;20144;-53
2022/06/28 11:13:20;;;;;;;2.67;0.65;;;20.40;96.60;;;;;;5100358;27;20326;-58
2022/06/28 11:15:46;;;;;;;2.85;0.65;;;20.40;96.80;;;;;;5090701;28;20091;-54
2022/06/28 11:18:17;;;;;;;2.05;0.40;;;20.30;97.00;;;;;;5089184;28;20046;-49
2022/06/28 11:20:43;;;;;;;3.78;0.90;;;20.30;95.50;;;;;;5088736;28;20052;-56
2022/06/28 11:23:09;;;;;;;3.67;0.68;;;20.40;98.00;;;;;;5090290;28;20067;-54
2022/06/28 11:28:21;;;;;;;5.43;0.70;;;20.30;95.90;;;;;;5091238;28;20036;-56
2022/06/28 11:30:47;;;;;;;1.42;0.30;;;20.30;96.10;;;;;;5090832;28;20482;-52
2022/06/28 11:33:15;;;;;;;;;;;20.20;95.40;;;;;;5092437;28;20032;-52
2022/06/28 11:35:41;;;;;;;2.05;0.47;;;20.20;96.80;;;;;;5083946;28;20677;-56
2022/06/28 11:38:14;;;;;;;3.85;0.35;;;20.30;96.40;;;;;;5073113;28;20039;-55
2022/06/28 11:40:43;;;;;;;1.92;0.40;;;20.30;96.20;;;;;;5072240;28;20051;-52
2022/06/28 11:43:13;;;;;;;1.45;0.40;;;20.40;96.50;;;;;;5068402;28;20485;-54
2022/06/28 11:45:42;;;;;;;3.05;0.45;;;20.50;95.50;;;;;;5070920;28;20032;-53
2022/06/28 11:48:16;;;;;;;3.72;0.82;;;20.50;95.80;;;;;;5069535;28;20041;-55
2022/06/28 11:50:43;;;;;;;2.35;0.30;;;20.50;94.60;;;;;;5071922;28;20065;-55
2022/06/28 11:53:10;;;;;;;4.22;0.77;;;20.60;95.50;;;;;;5074400;28;20120;-53
2022/06/28 11:55:46;;;;;;;2.63;0.30;;;20.60;95.00;;;;;;5079185;28;20036;-52
2022/06/28 11:58:23;;;;;;;5.43;0.85;;;20.70;95.20;;;;;;5079684;28;20520;-56
2022/06/28 12:01:05;;;;;;;4.13;0.45;;;20.70;94.40;;;;;;5081624;28;20029;-55
2022/06/28 12:03:32;;;;;;;3.15;0.47;;;20.70;94.20;;;;;;5079462;28;20099;-54
2022/06/28 12:06:00;;;;;;;4.72;0.47;;;20.70;93.40;;;;;;5077495;28;20529;-53
2022/06/28 12:08:50;;;;;;;5.00;0.75;;;20.60;94.30;;;;;;5073965;28;20031;-50
2022/06/28 12:11:35;;;;;;;2.63;0.50;;;20.70;95.50;;;;;;5077273;28;20033;-55
2022/06/28 12:14:06;;;;;;;4.78;0.60;;;20.80;94.60;;;;;;5074840;28;20040;-53
2022/06/28 12:16:33;;;;;;;3.90;0.63;;;20.90;94.80;;;;;;5079424;28;20046;-56
2022/06/28 12:19:00;;;;;;;3.35;0.43;;;21.00;96.40;;;;;;5076227;28;20032;-55
2022/06/28 12:21:26;;;;;;;5.22;0.68;;;21.10;95.50;;;;;;5072768;28;20044;-53
2022/06/28 12:23:54;;;;;;;2.70;0.40;;;21.10;94.80;;;;;;5064972;28;20147;-55
2022/06/28 12:26:21;;;;;;;4.43;0.38;;;21.20;94.90;;;;;;5065415;28;20051;-53
2022/06/28 12:28:47;;;;;;;9.05;0.50;;;21.20;93.70;;;;;;5062610;28;20530;-56
2022/06/28 12:31:13;;;;;;;;;;;21.30;94.50;;;;;;5062743;28;20048;-51
2022/06/28 12:33:38;;;;;;;4.88;0.90;;;21.30;94.60;;;;;;5064045;28;19916;-52
2022/06/28 12:36:04;;;;;;;;;;;21.30;94.60;;;;;;5064560;28;20055;-54
2022/06/28 12:38:30;;;;;;;2.10;0.47;;;21.30;93.80;;;;;;5064761;28;20238;-53
2022/06/28 12:40:56;;;;;;;;;;;21.30;93.90;;;;;;5063182;28;20103;-52
2022/06/28 12:43:22;;;;;;;3.35;0.30;;;21.20;92.40;;;;;;5062885;28;19955;-56
2022/06/28 12:45:47;;;;;;;;;;;21.10;94.80;;;;;;5062662;28;20553;-55
2022/06/28 12:48:13;;;;;;;4.35;0.30;;;21.20;94.00;;;;;;5060173;28;19917;-53
2022/06/28 12:50:38;;;;;;;;;;;21.30;95.30;;;;;;5062580;28;20476;-54
2022/06/28 12:53:04;;;;;;;3.38;0.68;;;21.40;93.70;;;;;;5060616;28;19963;-54
2022/06/28 12:55:29;;;;;;;;;;;21.50;93.60;;;;;;5065326;28;20089;-55
2022/06/28 12:57:55;;;;;;;0.90;0.38;;;21.60;92.20;;;;;;5061144;28;20141;-55